sensor_id;sensor_type;location;lat;lon;timestamp;P1;durP1;ratioP1;P2;durP2;ratioP2
2388;SDS011;1205;47.984;7.668;2022-11-23T00:02:16;8.80;;;4.43;;
2388;SDS011;1205;47.984;7.668;2022-11-23T00:04:41;6.67;;;3.40;;
2388;SDS011;1205;47.984;7.668;2022-11-23T00:07:07;8.03;;;4.03;;
2388;SDS011;1205;47.984;7.668;2022-11-23T00:09:32;7.23;;;3.40;;
2388;SDS011;1205;47.984;7.668;2022-11-23T00:11:58;9.53;;;2.30;;
2388;SDS011;1205;47.984;7.668;2022-11-23T00:14:24;4.30;;;2.77;;
2388;SDS011;1205;47.984;7.668;2022-11-23T00:16:49;6.30;;;2.97;;
2388;SDS011;1205;47.984;7.668;2022-11-23T00:19:15;4.30;;;3.00;;
2388;SDS011;1205;47.984;7.668;2022-11-23T00:21:40;5.70;;;3.07;;
2388;SDS011;1205;47.984;7.668;2022-11-23T00:24:06;9.90;;;3.43;;
2388;SDS011;1205;47.984;7.668;2022-11-23T00:26:34;7.40;;;3.97;;
2388;SDS011;1205;47.984;7.668;2022-11-23T00:29:00;8.93;;;3.67;;
2388;SDS011;1205;47.984;7.668;2022-11-23T00:31:25;8.97;;;4.90;;
2388;SDS011;1205;47.984;7.668;2022-11-23T00:33:52;6.73;;;3.77;;
2388;SDS011;1205;47.984;7.668;2022-11-23T00:36:18;7.27;;;3.00;;
2388;SDS011;1205;47.984;7.668;2022-11-23T00:38:45;14.57;;;3.80;;
2388;SDS011;1205;47.984;7.668;2022-11-23T00:41:12;9.63;;;3.80;;
2388;SDS011;1205;47.984;7.668;2022-11-23T00:43:40;9.60;;;3.70;;
2388;SDS011;1205;47.984;7.668;2022-11-23T00:48:37;6.77;;;3.70;;
2388;SDS011;1205;47.984;7.668;2022-11-23T00:51:04;8.30;;;3.10;;
2388;SDS011;1205;47.984;7.668;2022-11-23T00:53:32;14.10;;;3.90;;
2388;SDS011;1205;47.984;7.668;2022-11-23T00:55:58;9.97;;;3.80;;
2388;SDS011;1205;47.984;7.668;2022-11-23T00:58:23;8.27;;;3.07;;
2388;SDS011;1205;47.984;7.668;2022-11-23T01:00:50;9.43;;;4.47;;
2388;SDS011;1205;47.984;7.668;2022-11-23T01:03:26;10.60;;;3.27;;
2388;SDS011;1205;47.984;7.668;2022-11-23T01:05:53;13.70;;;5.20;;
2388;SDS011;1205;47.984;7.668;2022-11-23T01:08:18;6.90;;;3.20;;
2388;SDS011;1205;47.984;7.668;2022-11-23T01:10:44;9.00;;;2.07;;
2388;SDS011;1205;47.984;7.668;2022-11-23T01:13:09;3.50;;;1.70;;
2388;SDS011;1205;47.984;7.668;2022-11-23T01:15:35;6.00;;;1.63;;
2388;SDS011;1205;47.984;7.668;2022-11-23T01:18:00;3.33;;;1.87;;
2388;SDS011;1205;47.984;7.668;2022-11-23T01:20:26;4.83;;;1.90;;
2388;SDS011;1205;47.984;7.668;2022-11-23T01:22:51;3.77;;;1.40;;
2388;SDS011;1205;47.984;7.668;2022-11-23T01:25:17;3.40;;;1.50;;
2388;SDS011;1205;47.984;7.668;2022-11-23T01:27:43;3.60;;;1.50;;
2388;SDS011;1205;47.984;7.668;2022-11-23T01:30:08;3.60;;;1.67;;
2388;SDS011;1205;47.984;7.668;2022-11-23T01:32:34;5.50;;;2.07;;
2388;SDS011;1205;47.984;7.668;2022-11-23T01:35:00;1.93;;;1.20;;
2388;SDS011;1205;47.984;7.668;2022-11-23T01:37:26;2.77;;;1.30;;
2388;SDS011;1205;47.984;7.668;2022-11-23T01:39:51;5.10;;;1.80;;
2388;SDS011;1205;47.984;7.668;2022-11-23T01:42:17;3.17;;;1.20;;
2388;SDS011;1205;47.984;7.668;2022-11-23T01:44:42;5.67;;;1.60;;
2388;SDS011;1205;47.984;7.668;2022-11-23T01:47:08;5.23;;;1.20;;
2388;SDS011;1205;47.984;7.668;2022-11-23T01:49:38;7.63;;;2.97;;
2388;SDS011;1205;47.984;7.668;2022-11-23T01:52:12;8.20;;;3.40;;
2388;SDS011;1205;47.984;7.668;2022-11-23T01:54:48;9.00;;;4.60;;
2388;SDS011;1205;47.984;7.668;2022-11-23T01:57:17;4.23;;;1.67;;
2388;SDS011;1205;47.984;7.668;2022-11-23T01:59:50;5.27;;;2.00;;
2388;SDS011;1205;47.984;7.668;2022-11-23T02:02:17;7.37;;;2.77;;
2388;SDS011;1205;47.984;7.668;2022-11-23T02:04:44;9.73;;;4.20;;
2388;SDS011;1205;47.984;7.668;2022-11-23T02:07:11;7.07;;;3.80;;
2388;SDS011;1205;47.984;7.668;2022-11-23T02:09:38;5.07;;;3.20;;
2388;SDS011;1205;47.984;7.668;2022-11-23T02:12:09;6.30;;;2.20;;
2388;SDS011;1205;47.984;7.668;2022-11-23T02:14:35;8.77;;;1.60;;
2388;SDS011;1205;47.984;7.668;2022-11-23T02:17:01;3.27;;;1.97;;
2388;SDS011;1205;47.984;7.668;2022-11-23T02:22:21;5.33;;;2.10;;
2388;SDS011;1205;47.984;7.668;2022-11-23T02:25:12;5.40;;;2.17;;
2388;SDS011;1205;47.984;7.668;2022-11-23T02:27:46;6.83;;;2.50;;
2388;SDS011;1205;47.984;7.668;2022-11-23T02:30:12;7.23;;;2.67;;
2388;SDS011;1205;47.984;7.668;2022-11-23T02:32:38;8.00;;;1.90;;
2388;SDS011;1205;47.984;7.668;2022-11-23T02:35:04;6.63;;;2.00;;
2388;SDS011;1205;47.984;7.668;2022-11-23T02:37:30;8.43;;;1.67;;
2388;SDS011;1205;47.984;7.668;2022-11-23T02:39:55;5.73;;;2.90;;
2388;SDS011;1205;47.984;7.668;2022-11-23T02:42:23;7.77;;;4.20;;
2388;SDS011;1205;47.984;7.668;2022-11-23T02:44:53;5.83;;;2.33;;
2388;SDS011;1205;47.984;7.668;2022-11-23T02:47:41;3.07;;;2.10;;
2388;SDS011;1205;47.984;7.668;2022-11-23T02:50:06;4.87;;;2.37;;
2388;SDS011;1205;47.984;7.668;2022-11-23T02:52:32;5.77;;;1.60;;
2388;SDS011;1205;47.984;7.668;2022-11-23T02:54:58;1.40;;;1.40;;
2388;SDS011;1205;47.984;7.668;2022-11-23T02:57:23;1.80;;;1.37;;
2388;SDS011;1205;47.984;7.668;2022-11-23T02:59:49;5.50;;;1.10;;
2388;SDS011;1205;47.984;7.668;2022-11-23T03:02:14;3.50;;;1.17;;
2388;SDS011;1205;47.984;7.668;2022-11-23T03:04:40;2.00;;;1.00;;
2388;SDS011;1205;47.984;7.668;2022-11-23T03:07:05;2.70;;;1.20;;
2388;SDS011;1205;47.984;7.668;2022-11-23T03:09:31;1.80;;;1.13;;
2388;SDS011;1205;47.984;7.668;2022-11-23T03:11:56;1.10;;;1.00;;
2388;SDS011;1205;47.984;7.668;2022-11-23T03:14:22;2.30;;;1.40;;
2388;SDS011;1205;47.984;7.668;2022-11-23T03:16:48;4.67;;;1.87;;
2388;SDS011;1205;47.984;7.668;2022-11-23T03:19:13;2.10;;;1.57;;
2388;SDS011;1205;47.984;7.668;2022-11-23T03:21:39;3.80;;;1.20;;
2388;SDS011;1205;47.984;7.668;2022-11-23T03:24:05;5.53;;;1.20;;
2388;SDS011;1205;47.984;7.668;2022-11-23T03:26:30;4.93;;;1.20;;
2388;SDS011;1205;47.984;7.668;2022-11-23T03:28:56;7.23;;;1.50;;
2388;SDS011;1205;47.984;7.668;2022-11-23T03:31:21;5.30;;;1.10;;
2388;SDS011;1205;47.984;7.668;2022-11-23T03:33:47;2.83;;;0.87;;
2388;SDS011;1205;47.984;7.668;2022-11-23T03:36:13;2.67;;;1.13;;
2388;SDS011;1205;47.984;7.668;2022-11-23T03:38:38;3.47;;;1.73;;
2388;SDS011;1205;47.984;7.668;2022-11-23T03:41:04;7.23;;;1.07;;
2388;SDS011;1205;47.984;7.668;2022-11-23T03:43:29;3.90;;;1.00;;
2388;SDS011;1205;47.984;7.668;2022-11-23T03:45:55;11.93;;;1.50;;
2388;SDS011;1205;47.984;7.668;2022-11-23T03:48:20;7.40;;;1.60;;
2388;SDS011;1205;47.984;7.668;2022-11-23T03:50:46;9.20;;;1.37;;
2388;SDS011;1205;47.984;7.668;2022-11-23T03:53:11;2.10;;;0.70;;
2388;SDS011;1205;47.984;7.668;2022-11-23T03:55:37;5.87;;;1.20;;
2388;SDS011;1205;47.984;7.668;2022-11-23T03:58:02;1.87;;;0.87;;
2388;SDS011;1205;47.984;7.668;2022-11-23T04:00:29;3.90;;;1.50;;
2388;SDS011;1205;47.984;7.668;2022-11-23T04:02:55;2.93;;;1.00;;
2388;SDS011;1205;47.984;7.668;2022-11-23T04:05:21;3.40;;;1.10;;
2388;SDS011;1205;47.984;7.668;2022-11-23T04:07:47;4.03;;;1.47;;
2388;SDS011;1205;47.984;7.668;2022-11-23T04:10:14;3.77;;;1.23;;
2388;SDS011;1205;47.984;7.668;2022-11-23T04:12:40;11.53;;;5.50;;
2388;SDS011;1205;47.984;7.668;2022-11-23T04:15:06;20.40;;;11.07;;
2388;SDS011;1205;47.984;7.668;2022-11-23T04:17:32;13.60;;;8.10;;
2388;SDS011;1205;47.984;7.668;2022-11-23T04:19:58;23.13;;;11.23;;
2388;SDS011;1205;47.984;7.668;2022-11-23T04:22:23;23.57;;;12.20;;
2388;SDS011;1205;47.984;7.668;2022-11-23T04:24:49;31.30;;;15.93;;
2388;SDS011;1205;47.984;7.668;2022-11-23T04:27:14;43.50;;;20.40;;
2388;SDS011;1205;47.984;7.668;2022-11-23T04:29:40;29.47;;;16.03;;
2388;SDS011;1205;47.984;7.668;2022-11-23T04:32:05;25.90;;;13.77;;
2388;SDS011;1205;47.984;7.668;2022-11-23T04:34:31;22.00;;;11.13;;
2388;SDS011;1205;47.984;7.668;2022-11-23T04:36:57;20.80;;;8.13;;
2388;SDS011;1205;47.984;7.668;2022-11-23T04:39:22;6.43;;;2.90;;
2388;SDS011;1205;47.984;7.668;2022-11-23T04:41:48;5.23;;;2.50;;
2388;SDS011;1205;47.984;7.668;2022-11-23T04:44:13;2.53;;;2.10;;
2388;SDS011;1205;47.984;7.668;2022-11-23T04:46:39;3.03;;;2.07;;
2388;SDS011;1205;47.984;7.668;2022-11-23T04:49:04;5.70;;;1.70;;
2388;SDS011;1205;47.984;7.668;2022-11-23T04:51:30;3.43;;;1.50;;
2388;SDS011;1205;47.984;7.668;2022-11-23T04:53:56;4.97;;;1.20;;
2388;SDS011;1205;47.984;7.668;2022-11-23T04:56:22;3.60;;;1.70;;
2388;SDS011;1205;47.984;7.668;2022-11-23T04:58:47;2.43;;;1.30;;
2388;SDS011;1205;47.984;7.668;2022-11-23T05:01:13;5.20;;;1.43;;
2388;SDS011;1205;47.984;7.668;2022-11-23T05:03:38;1.20;;;1.00;;
2388;SDS011;1205;47.984;7.668;2022-11-23T05:06:04;7.30;;;1.37;;
2388;SDS011;1205;47.984;7.668;2022-11-23T05:08:31;2.83;;;1.60;;
2388;SDS011;1205;47.984;7.668;2022-11-23T05:10:57;7.53;;;1.17;;
2388;SDS011;1205;47.984;7.668;2022-11-23T05:13:22;8.10;;;1.30;;
2388;SDS011;1205;47.984;7.668;2022-11-23T05:15:48;3.97;;;1.33;;
2388;SDS011;1205;47.984;7.668;2022-11-23T05:18:14;6.17;;;1.57;;
2388;SDS011;1205;47.984;7.668;2022-11-23T05:20:39;2.63;;;0.97;;
2388;SDS011;1205;47.984;7.668;2022-11-23T05:23:05;7.07;;;1.00;;
2388;SDS011;1205;47.984;7.668;2022-11-23T05:25:32;4.57;;;1.20;;
2388;SDS011;1205;47.984;7.668;2022-11-23T05:27:58;6.07;;;1.77;;
2388;SDS011;1205;47.984;7.668;2022-11-23T05:30:23;3.50;;;1.40;;
2388;SDS011;1205;47.984;7.668;2022-11-23T05:32:49;2.50;;;1.10;;
2388;SDS011;1205;47.984;7.668;2022-11-23T05:35:15;4.73;;;1.20;;
2388;SDS011;1205;47.984;7.668;2022-11-23T05:37:40;2.97;;;1.00;;
2388;SDS011;1205;47.984;7.668;2022-11-23T05:40:06;7.63;;;0.90;;
2388;SDS011;1205;47.984;7.668;2022-11-23T05:42:32;7.03;;;1.43;;
2388;SDS011;1205;47.984;7.668;2022-11-23T05:44:58;4.63;;;1.23;;
2388;SDS011;1205;47.984;7.668;2022-11-23T05:47:24;4.33;;;1.23;;
2388;SDS011;1205;47.984;7.668;2022-11-23T05:49:49;3.23;;;1.23;;
2388;SDS011;1205;47.984;7.668;2022-11-23T05:52:15;7.50;;;1.20;;
2388;SDS011;1205;47.984;7.668;2022-11-23T05:54:41;5.07;;;1.97;;
2388;SDS011;1205;47.984;7.668;2022-11-23T05:57:06;8.90;;;1.40;;
2388;SDS011;1205;47.984;7.668;2022-11-23T05:59:32;3.07;;;1.57;;
2388;SDS011;1205;47.984;7.668;2022-11-23T06:01:57;3.43;;;1.50;;
2388;SDS011;1205;47.984;7.668;2022-11-23T06:04:23;5.33;;;1.67;;
2388;SDS011;1205;47.984;7.668;2022-11-23T06:06:48;3.03;;;1.70;;
2388;SDS011;1205;47.984;7.668;2022-11-23T06:09:14;8.23;;;1.67;;
2388;SDS011;1205;47.984;7.668;2022-11-23T06:11:40;4.33;;;1.90;;
2388;SDS011;1205;47.984;7.668;2022-11-23T06:14:05;5.60;;;1.93;;
2388;SDS011;1205;47.984;7.668;2022-11-23T06:16:31;5.53;;;1.80;;
2388;SDS011;1205;47.984;7.668;2022-11-23T06:18:57;4.47;;;1.50;;
2388;SDS011;1205;47.984;7.668;2022-11-23T06:21:22;6.00;;;1.40;;
2388;SDS011;1205;47.984;7.668;2022-11-23T06:23:48;2.13;;;1.33;;
2388;SDS011;1205;47.984;7.668;2022-11-23T06:26:14;9.37;;;1.70;;
2388;SDS011;1205;47.984;7.668;2022-11-23T06:28:40;18.03;;;5.40;;
2388;SDS011;1205;47.984;7.668;2022-11-23T06:31:05;21.30;;;12.70;;
2388;SDS011;1205;47.984;7.668;2022-11-23T06:33:31;33.47;;;17.83;;
2388;SDS011;1205;47.984;7.668;2022-11-23T06:35:58;17.40;;;11.03;;
2388;SDS011;1205;47.984;7.668;2022-11-23T06:38:25;11.10;;;8.23;;
2388;SDS011;1205;47.984;7.668;2022-11-23T06:40:51;15.20;;;8.90;;
2388;SDS011;1205;47.984;7.668;2022-11-23T06:43:17;15.10;;;7.07;;
2388;SDS011;1205;47.984;7.668;2022-11-23T06:45:43;10.27;;;5.90;;
2388;SDS011;1205;47.984;7.668;2022-11-23T06:48:09;11.50;;;4.57;;
2388;SDS011;1205;47.984;7.668;2022-11-23T06:50:35;7.70;;;2.93;;
2388;SDS011;1205;47.984;7.668;2022-11-23T06:53:00;26.23;;;6.57;;
2388;SDS011;1205;47.984;7.668;2022-11-23T06:55:26;19.13;;;6.10;;
2388;SDS011;1205;47.984;7.668;2022-11-23T06:57:51;17.80;;;6.77;;
2388;SDS011;1205;47.984;7.668;2022-11-23T07:00:17;25.60;;;6.50;;
2388;SDS011;1205;47.984;7.668;2022-11-23T07:02:49;25.73;;;9.33;;
2388;SDS011;1205;47.984;7.668;2022-11-23T07:05:16;20.07;;;8.33;;
2388;SDS011;1205;47.984;7.668;2022-11-23T07:07:42;20.40;;;8.27;;
2388;SDS011;1205;47.984;7.668;2022-11-23T07:10:08;25.50;;;9.37;;
2388;SDS011;1205;47.984;7.668;2022-11-23T07:12:34;21.07;;;8.50;;
2388;SDS011;1205;47.984;7.668;2022-11-23T07:14:59;25.33;;;9.87;;
2388;SDS011;1205;47.984;7.668;2022-11-23T07:17:25;27.00;;;9.43;;
2388;SDS011;1205;47.984;7.668;2022-11-23T07:19:50;17.00;;;6.83;;
2388;SDS011;1205;47.984;7.668;2022-11-23T07:22:16;15.47;;;6.90;;
2388;SDS011;1205;47.984;7.668;2022-11-23T07:24:42;20.33;;;9.93;;
2388;SDS011;1205;47.984;7.668;2022-11-23T07:27:07;20.30;;;10.87;;
2388;SDS011;1205;47.984;7.668;2022-11-23T07:29:33;17.70;;;10.37;;
2388;SDS011;1205;47.984;7.668;2022-11-23T07:31:58;25.50;;;11.77;;
2388;SDS011;1205;47.984;7.668;2022-11-23T07:34:24;20.90;;;10.97;;
2388;SDS011;1205;47.984;7.668;2022-11-23T07:36:51;25.70;;;12.50;;
2388;SDS011;1205;47.984;7.668;2022-11-23T07:39:17;29.27;;;15.40;;
2388;SDS011;1205;47.984;7.668;2022-11-23T07:41:42;39.37;;;17.93;;
2388;SDS011;1205;47.984;7.668;2022-11-23T07:44:08;30.73;;;15.60;;
2388;SDS011;1205;47.984;7.668;2022-11-23T07:46:33;18.97;;;10.17;;
2388;SDS011;1205;47.984;7.668;2022-11-23T07:48:59;21.90;;;10.10;;
2388;SDS011;1205;47.984;7.668;2022-11-23T07:51:26;24.30;;;11.83;;
2388;SDS011;1205;47.984;7.668;2022-11-23T07:53:52;21.80;;;13.23;;
2388;SDS011;1205;47.984;7.668;2022-11-23T07:56:18;26.73;;;15.43;;
2388;SDS011;1205;47.984;7.668;2022-11-23T07:58:43;25.13;;;14.73;;
2388;SDS011;1205;47.984;7.668;2022-11-23T08:01:12;23.43;;;14.17;;
2388;SDS011;1205;47.984;7.668;2022-11-23T08:03:41;24.40;;;14.13;;
2388;SDS011;1205;47.984;7.668;2022-11-23T08:06:11;24.47;;;13.33;;
2388;SDS011;1205;47.984;7.668;2022-11-23T08:08:37;19.73;;;7.50;;
2388;SDS011;1205;47.984;7.668;2022-11-23T08:11:04;18.17;;;8.07;;
2388;SDS011;1205;47.984;7.668;2022-11-23T08:13:30;8.40;;;5.23;;
2388;SDS011;1205;47.984;7.668;2022-11-23T08:15:56;6.97;;;4.53;;
2388;SDS011;1205;47.984;7.668;2022-11-23T08:18:22;10.77;;;5.70;;
2388;SDS011;1205;47.984;7.668;2022-11-23T08:20:48;10.63;;;5.73;;
2388;SDS011;1205;47.984;7.668;2022-11-23T08:23:14;11.40;;;6.80;;
2388;SDS011;1205;47.984;7.668;2022-11-23T08:25:39;14.70;;;7.77;;
2388;SDS011;1205;47.984;7.668;2022-11-23T08:28:05;16.77;;;7.97;;
2388;SDS011;1205;47.984;7.668;2022-11-23T08:30:31;27.13;;;6.80;;
2388;SDS011;1205;47.984;7.668;2022-11-23T08:32:58;13.47;;;6.40;;
2388;SDS011;1205;47.984;7.668;2022-11-23T08:35:27;11.40;;;3.50;;
2388;SDS011;1205;47.984;7.668;2022-11-23T08:37:53;16.93;;;3.53;;
2388;SDS011;1205;47.984;7.668;2022-11-23T08:40:18;10.80;;;3.17;;
2388;SDS011;1205;47.984;7.668;2022-11-23T08:42:45;11.80;;;2.97;;
2388;SDS011;1205;47.984;7.668;2022-11-23T08:45:11;8.20;;;2.93;;
2388;SDS011;1205;47.984;7.668;2022-11-23T08:47:36;15.63;;;3.53;;
2388;SDS011;1205;47.984;7.668;2022-11-23T08:50:02;10.50;;;3.07;;
2388;SDS011;1205;47.984;7.668;2022-11-23T08:52:28;16.20;;;3.70;;
2388;SDS011;1205;47.984;7.668;2022-11-23T08:54:54;24.83;;;4.40;;
2388;SDS011;1205;47.984;7.668;2022-11-23T08:57:20;10.93;;;3.03;;
2388;SDS011;1205;47.984;7.668;2022-11-23T08:59:45;12.00;;;3.07;;
2388;SDS011;1205;47.984;7.668;2022-11-23T09:02:11;12.87;;;3.27;;
2388;SDS011;1205;47.984;7.668;2022-11-23T09:04:38;19.10;;;3.40;;
2388;SDS011;1205;47.984;7.668;2022-11-23T09:07:04;9.40;;;3.30;;
2388;SDS011;1205;47.984;7.668;2022-11-23T09:09:30;15.10;;;3.50;;
2388;SDS011;1205;47.984;7.668;2022-11-23T09:11:55;10.03;;;3.50;;
2388;SDS011;1205;47.984;7.668;2022-11-23T09:14:21;5.83;;;2.70;;
2388;SDS011;1205;47.984;7.668;2022-11-23T09:16:47;13.97;;;3.43;;
2388;SDS011;1205;47.984;7.668;2022-11-23T09:19:13;13.67;;;3.07;;
2388;SDS011;1205;47.984;7.668;2022-11-23T09:21:38;7.97;;;2.53;;
2388;SDS011;1205;47.984;7.668;2022-11-23T09:24:06;7.50;;;3.10;;
2388;SDS011;1205;47.984;7.668;2022-11-23T09:26:32;6.40;;;3.57;;
2388;SDS011;1205;47.984;7.668;2022-11-23T09:28:58;7.23;;;2.80;;
2388;SDS011;1205;47.984;7.668;2022-11-23T09:31:24;10.83;;;3.53;;
2388;SDS011;1205;47.984;7.668;2022-11-23T09:33:52;6.93;;;3.67;;
2388;SDS011;1205;47.984;7.668;2022-11-23T09:36:18;11.60;;;2.93;;
2388;SDS011;1205;47.984;7.668;2022-11-23T09:38:44;8.33;;;3.27;;
2388;SDS011;1205;47.984;7.668;2022-11-23T09:52:36;9.77;;;2.13;;
2388;SDS011;1205;47.984;7.668;2022-11-23T09:55:49;5.43;;;2.03;;
2388;SDS011;1205;47.984;7.668;2022-11-23T09:58:05;3.90;;;2.43;;
2388;SDS011;1205;47.984;7.668;2022-11-23T10:00:36;11.10;;;2.93;;
2388;SDS011;1205;47.984;7.668;2022-11-23T10:03:05;9.30;;;2.50;;
2388;SDS011;1205;47.984;7.668;2022-11-23T10:05:31;5.37;;;1.90;;
2388;SDS011;1205;47.984;7.668;2022-11-23T10:11:41;3.83;;;2.20;;
2388;SDS011;1205;47.984;7.668;2022-11-23T10:19:43;8.40;;;2.67;;
2388;SDS011;1205;47.984;7.668;2022-11-23T10:22:24;4.27;;;2.30;;
2388;SDS011;1205;47.984;7.668;2022-11-23T10:25:25;2.93;;;1.60;;
2388;SDS011;1205;47.984;7.668;2022-11-23T10:27:57;4.20;;;1.90;;
2388;SDS011;1205;47.984;7.668;2022-11-23T10:30:26;3.50;;;2.00;;
2388;SDS011;1205;47.984;7.668;2022-11-23T10:35:28;3.83;;;1.70;;
2388;SDS011;1205;47.984;7.668;2022-11-23T10:38:15;1.30;;;1.27;;
2388;SDS011;1205;47.984;7.668;2022-11-23T10:40:52;4.27;;;1.90;;
2388;SDS011;1205;47.984;7.668;2022-11-23T10:51:47;4.57;;;1.50;;
2388;SDS011;1205;47.984;7.668;2022-11-23T10:54:25;2.30;;;1.13;;
2388;SDS011;1205;47.984;7.668;2022-11-23T10:59:59;2.10;;;1.20;;
2388;SDS011;1205;47.984;7.668;2022-11-23T11:02:29;5.33;;;1.33;;
2388;SDS011;1205;47.984;7.668;2022-11-23T11:07:56;6.53;;;1.40;;
2388;SDS011;1205;47.984;7.668;2022-11-23T11:12:58;3.80;;;1.40;;
2388;SDS011;1205;47.984;7.668;2022-11-23T11:15:23;1.07;;;0.97;;
2388;SDS011;1205;47.984;7.668;2022-11-23T11:17:53;2.17;;;1.10;;
2388;SDS011;1205;47.984;7.668;2022-11-23T11:22:52;1.90;;;1.10;;
2388;SDS011;1205;47.984;7.668;2022-11-23T11:25:27;3.13;;;0.80;;
2388;SDS011;1205;47.984;7.668;2022-11-23T11:27:57;1.63;;;1.10;;
2388;SDS011;1205;47.984;7.668;2022-11-23T11:30:23;3.90;;;1.10;;
2388;SDS011;1205;47.984;7.668;2022-11-23T11:33:03;2.37;;;1.10;;
2388;SDS011;1205;47.984;7.668;2022-11-23T11:35:39;2.40;;;1.23;;
2388;SDS011;1205;47.984;7.668;2022-11-23T11:38:24;5.80;;;1.53;;
2388;SDS011;1205;47.984;7.668;2022-11-23T11:40:56;5.50;;;1.30;;
2388;SDS011;1205;47.984;7.668;2022-11-23T11:43:29;3.50;;;1.10;;
2388;SDS011;1205;47.984;7.668;2022-11-23T11:45:57;4.53;;;1.40;;
2388;SDS011;1205;47.984;7.668;2022-11-23T11:48:32;3.03;;;1.10;;
2388;SDS011;1205;47.984;7.668;2022-11-23T11:51:04;5.43;;;0.90;;
2388;SDS011;1205;47.984;7.668;2022-11-23T11:56:30;12.40;;;2.03;;
2388;SDS011;1205;47.984;7.668;2022-11-23T11:59:12;1.77;;;0.80;;
2388;SDS011;1205;47.984;7.668;2022-11-23T12:01:59;0.93;;;0.93;;
2388;SDS011;1205;47.984;7.668;2022-11-23T12:10:04;0.57;;;0.57;;
2388;SDS011;1205;47.984;7.668;2022-11-23T12:12:36;0.50;;;0.50;;
2388;SDS011;1205;47.984;7.668;2022-11-23T12:15:02;0.57;;;0.57;;
2388;SDS011;1205;47.984;7.668;2022-11-23T12:18:12;1.23;;;0.50;;
2388;SDS011;1205;47.984;7.668;2022-11-23T12:20:42;1.80;;;0.80;;
2388;SDS011;1205;47.984;7.668;2022-11-23T12:34:02;0.90;;;0.90;;
2388;SDS011;1205;47.984;7.668;2022-11-23T12:36:53;0.70;;;0.50;;
2388;SDS011;1205;47.984;7.668;2022-11-23T12:42:38;0.97;;;0.60;;
2388;SDS011;1205;47.984;7.668;2022-11-23T12:47:48;0.67;;;0.50;;
2388;SDS011;1205;47.984;7.668;2022-11-23T12:53:02;1.73;;;0.80;;
2388;SDS011;1205;47.984;7.668;2022-11-23T12:55:53;0.60;;;0.60;;
2388;SDS011;1205;47.984;7.668;2022-11-23T12:58:22;4.50;;;0.73;;
2388;SDS011;1205;47.984;7.668;2022-11-23T13:00:53;0.70;;;0.70;;
2388;SDS011;1205;47.984;7.668;2022-11-23T13:14:57;2.40;;;0.90;;
2388;SDS011;1205;47.984;7.668;2022-11-23T13:17:48;3.60;;;1.47;;
2388;SDS011;1205;47.984;7.668;2022-11-23T13:23:38;0.70;;;0.70;;
2388;SDS011;1205;47.984;7.668;2022-11-23T13:28:50;1.00;;;0.83;;
2388;SDS011;1205;47.984;7.668;2022-11-23T13:31:21;1.77;;;0.80;;
2388;SDS011;1205;47.984;7.668;2022-11-23T13:33:49;1.23;;;0.80;;
2388;SDS011;1205;47.984;7.668;2022-11-23T13:38:58;2.00;;;0.77;;
2388;SDS011;1205;47.984;7.668;2022-11-23T13:46:43;1.00;;;0.90;;
2388;SDS011;1205;47.984;7.668;2022-11-23T13:49:39;1.33;;;0.73;;
2388;SDS011;1205;47.984;7.668;2022-11-23T13:54:52;1.43;;;1.33;;
2388;SDS011;1205;47.984;7.668;2022-11-23T13:57:19;1.87;;;1.77;;
2388;SDS011;1205;47.984;7.668;2022-11-23T13:59:44;1.57;;;1.50;;
2388;SDS011;1205;47.984;7.668;2022-11-23T14:04:39;2.40;;;2.30;;
2388;SDS011;1205;47.984;7.668;2022-11-23T14:12:35;3.90;;;1.40;;
2388;SDS011;1205;47.984;7.668;2022-11-23T14:15:37;1.43;;;1.33;;
2388;SDS011;1205;47.984;7.668;2022-11-23T14:21:05;3.90;;;1.80;;
2388;SDS011;1205;47.984;7.668;2022-11-23T14:31:51;0.93;;;0.93;;
2388;SDS011;1205;47.984;7.668;2022-11-23T14:39:58;4.77;;;1.40;;
2388;SDS011;1205;47.984;7.668;2022-11-23T14:42:29;2.60;;;1.03;;
2388;SDS011;1205;47.984;7.668;2022-11-23T14:45:00;1.43;;;1.07;;
2388;SDS011;1205;47.984;7.668;2022-11-23T14:47:29;12.60;;;1.97;;
2388;SDS011;1205;47.984;7.668;2022-11-23T14:49:55;5.37;;;1.37;;
2388;SDS011;1205;47.984;7.668;2022-11-23T14:52:21;7.87;;;0.93;;
2388;SDS011;1205;47.984;7.668;2022-11-23T14:54:56;1.13;;;1.13;;
2388;SDS011;1205;47.984;7.668;2022-11-23T14:57:25;1.10;;;1.10;;
2388;SDS011;1205;47.984;7.668;2022-11-23T14:59:56;1.53;;;1.43;;
2388;SDS011;1205;47.984;7.668;2022-11-23T15:02:33;1.73;;;1.53;;
2388;SDS011;1205;47.984;7.668;2022-11-23T15:05:13;2.43;;;2.23;;
2388;SDS011;1205;47.984;7.668;2022-11-23T15:13:14;2.67;;;2.47;;
2388;SDS011;1205;47.984;7.668;2022-11-23T15:15:46;6.20;;;3.00;;
2388;SDS011;1205;47.984;7.668;2022-11-23T15:18:24;11.37;;;4.10;;
2388;SDS011;1205;47.984;7.668;2022-11-23T15:23:35;8.43;;;4.93;;
2388;SDS011;1205;47.984;7.668;2022-11-23T15:26:11;3.00;;;2.80;;
2388;SDS011;1205;47.984;7.668;2022-11-23T15:28:39;7.60;;;3.17;;
2388;SDS011;1205;47.984;7.668;2022-11-23T15:31:24;4.57;;;3.60;;
2388;SDS011;1205;47.984;7.668;2022-11-23T15:33:57;4.70;;;3.53;;
2388;SDS011;1205;47.984;7.668;2022-11-23T15:36:33;11.90;;;2.60;;
2388;SDS011;1205;47.984;7.668;2022-11-23T15:39:02;6.40;;;4.47;;
2388;SDS011;1205;47.984;7.668;2022-11-23T15:41:32;4.53;;;1.90;;
2388;SDS011;1205;47.984;7.668;2022-11-23T15:44:13;8.67;;;2.13;;
2388;SDS011;1205;47.984;7.668;2022-11-23T15:46:54;3.40;;;1.70;;
2388;SDS011;1205;47.984;7.668;2022-11-23T15:49:24;6.37;;;2.27;;
2388;SDS011;1205;47.984;7.668;2022-11-23T15:51:50;9.60;;;3.10;;
2388;SDS011;1205;47.984;7.668;2022-11-23T15:54:24;6.70;;;2.00;;
2388;SDS011;1205;47.984;7.668;2022-11-23T15:56:52;5.13;;;2.20;;
2388;SDS011;1205;47.984;7.668;2022-11-23T16:02:16;6.47;;;1.77;;
2388;SDS011;1205;47.984;7.668;2022-11-23T16:04:46;3.93;;;2.77;;
2388;SDS011;1205;47.984;7.668;2022-11-23T16:07:16;8.13;;;2.43;;
2388;SDS011;1205;47.984;7.668;2022-11-23T16:09:44;2.80;;;2.07;;
2388;SDS011;1205;47.984;7.668;2022-11-23T16:12:19;4.00;;;1.70;;
2388;SDS011;1205;47.984;7.668;2022-11-23T16:14:47;1.43;;;1.33;;
2388;SDS011;1205;47.984;7.668;2022-11-23T16:19:47;5.67;;;5.17;;
2388;SDS011;1205;47.984;7.668;2022-11-23T16:22:17;5.60;;;5.00;;
2388;SDS011;1205;47.984;7.668;2022-11-23T16:27:30;14.57;;;10.07;;
2388;SDS011;1205;47.984;7.668;2022-11-23T16:29:56;12.77;;;5.43;;
2388;SDS011;1205;47.984;7.668;2022-11-23T16:32:26;2.60;;;2.40;;
2388;SDS011;1205;47.984;7.668;2022-11-23T16:34:53;2.87;;;2.10;;
2388;SDS011;1205;47.984;7.668;2022-11-23T16:37:19;2.23;;;2.13;;
2388;SDS011;1205;47.984;7.668;2022-11-23T16:39:46;2.83;;;1.77;;
2388;SDS011;1205;47.984;7.668;2022-11-23T16:42:12;2.43;;;1.20;;
2388;SDS011;1205;47.984;7.668;2022-11-23T16:44:39;1.50;;;1.40;;
2388;SDS011;1205;47.984;7.668;2022-11-23T16:47:22;1.83;;;1.27;;
2388;SDS011;1205;47.984;7.668;2022-11-23T16:49:49;2.30;;;1.70;;
2388;SDS011;1205;47.984;7.668;2022-11-23T16:52:16;2.63;;;1.90;;
2388;SDS011;1205;47.984;7.668;2022-11-23T16:54:42;1.93;;;1.83;;
2388;SDS011;1205;47.984;7.668;2022-11-23T16:57:13;5.83;;;2.10;;
2388;SDS011;1205;47.984;7.668;2022-11-23T17:00:00;2.27;;;2.07;;
2388;SDS011;1205;47.984;7.668;2022-11-23T17:02:28;4.60;;;3.60;;
2388;SDS011;1205;47.984;7.668;2022-11-23T17:04:54;6.13;;;4.17;;
2388;SDS011;1205;47.984;7.668;2022-11-23T17:07:20;5.27;;;3.87;;
2388;SDS011;1205;47.984;7.668;2022-11-23T17:09:45;7.30;;;3.20;;
2388;SDS011;1205;47.984;7.668;2022-11-23T17:12:17;4.30;;;1.93;;
2388;SDS011;1205;47.984;7.668;2022-11-23T17:14:45;2.90;;;2.50;;
2388;SDS011;1205;47.984;7.668;2022-11-23T17:17:19;6.17;;;1.80;;
2388;SDS011;1205;47.984;7.668;2022-11-23T17:19:46;1.87;;;1.77;;
2388;SDS011;1205;47.984;7.668;2022-11-23T17:22:17;1.80;;;1.70;;
2388;SDS011;1205;47.984;7.668;2022-11-23T17:24:44;1.60;;;1.53;;
2388;SDS011;1205;47.984;7.668;2022-11-23T17:27:13;3.50;;;2.30;;
2388;SDS011;1205;47.984;7.668;2022-11-23T17:29:42;2.73;;;2.53;;
2388;SDS011;1205;47.984;7.668;2022-11-23T17:32:11;3.13;;;1.60;;
2388;SDS011;1205;47.984;7.668;2022-11-23T17:34:38;2.60;;;1.60;;
2388;SDS011;1205;47.984;7.668;2022-11-23T17:37:04;1.87;;;1.77;;
2388;SDS011;1205;47.984;7.668;2022-11-23T17:39:30;5.40;;;2.20;;
2388;SDS011;1205;47.984;7.668;2022-11-23T17:41:56;2.33;;;2.23;;
2388;SDS011;1205;47.984;7.668;2022-11-23T17:44:22;4.23;;;3.07;;